createdAt,value
2022-10-09T00:00:50.088Z,1.23
2022-10-09T00:03:18.355Z,0.80
2022-10-09T00:05:45.515Z,1.23
2022-10-09T00:08:12.788Z,1.33
2022-10-09T00:10:43.975Z,1.15
2022-10-09T00:13:13.658Z,1.42
2022-10-09T00:15:42.990Z,0.90
2022-10-09T00:18:11.654Z,1.05
2022-10-09T00:20:40.540Z,1.02
2022-10-09T00:23:07.919Z,1.00
2022-10-09T00:25:36.004Z,1.00
2022-10-09T00:28:04.681Z,1.10
2022-10-09T00:30:32.285Z,0.80
2022-10-09T00:32:59.251Z,0.90
2022-10-09T00:35:26.206Z,1.33
2022-10-09T00:37:53.102Z,1.10
2022-10-09T00:40:20.262Z,0.85
2022-10-09T00:42:49.040Z,1.23
2022-10-09T00:45:21.899Z,1.45
2022-10-09T00:47:53.240Z,1.15
2022-10-09T00:50:24.702Z,0.73
2022-10-09T00:52:55.825Z,1.45
2022-10-09T00:55:23.972Z,1.00
2022-10-09T00:57:52.604Z,0.98
2022-10-09T01:00:19.741Z,1.10
2022-10-09T01:02:47.230Z,1.52
2022-10-09T01:05:15.148Z,1.20
2022-10-09T01:07:53.834Z,1.10
2022-10-09T01:10:40.760Z,1.50
2022-10-09T01:13:25.164Z,1.00
2022-10-09T01:16:17.421Z,1.20
2022-10-09T01:18:48.769Z,1.40
2022-10-09T01:21:26.965Z,1.75
2022-10-09T01:23:59.921Z,1.12
2022-10-09T01:26:56.904Z,1.17
2022-10-09T01:29:26.815Z,1.37
2022-10-09T01:31:54.989Z,1.27
2022-10-09T01:34:23.977Z,1.25
2022-10-09T01:36:51.958Z,1.20
2022-10-09T01:39:21.500Z,1.30
2022-10-09T01:41:50.305Z,1.48
2022-10-09T01:44:29.093Z,1.35
2022-10-09T01:46:56.525Z,2.60
2022-10-09T01:49:50.553Z,1.40
2022-10-09T01:52:41.267Z,1.58
2022-10-09T01:55:08.467Z,1.50
2022-10-09T01:57:38.545Z,1.50
2022-10-09T02:00:10.344Z,1.40
2022-10-09T02:02:38.706Z,1.37
2022-10-09T02:05:07.813Z,1.58
2022-10-09T02:07:35.426Z,2.20
2022-10-09T02:10:04.935Z,1.85
2022-10-09T02:12:37.162Z,1.25
2022-10-09T02:15:04.981Z,1.70
2022-10-09T02:17:36.919Z,1.90
2022-10-09T02:20:12.831Z,1.60
2022-10-09T02:22:40.985Z,2.08
2022-10-09T02:25:08.695Z,1.85
2022-10-09T02:27:36.258Z,1.90
2022-10-09T02:30:06.024Z,1.85
2022-10-09T02:32:33.003Z,2.08
2022-10-09T02:35:00.005Z,1.60
2022-10-09T02:37:26.964Z,1.80
2022-10-09T02:39:53.860Z,2.30
2022-10-09T02:42:22.163Z,2.30
2022-10-09T02:44:49.169Z,4.03
2022-10-09T02:47:16.099Z,2.72
2022-10-09T02:49:43.141Z,2.53
2022-10-09T02:52:10.286Z,2.55
2022-10-09T02:54:37.215Z,2.53
2022-10-09T02:57:04.148Z,2.20
2022-10-09T02:59:32.203Z,2.40
2022-10-09T03:01:59.205Z,2.40
2022-10-09T03:04:26.150Z,2.97
2022-10-09T03:06:53.084Z,2.45
2022-10-09T03:09:20.040Z,3.92
2022-10-09T03:11:47.149Z,2.20
2022-10-09T03:14:14.083Z,2.60
2022-10-09T03:16:41.062Z,3.55
2022-10-09T03:19:07.984Z,2.25
2022-10-09T03:21:34.954Z,2.20
2022-10-09T03:24:01.851Z,2.80
2022-10-09T03:26:29.283Z,2.33
2022-10-09T03:28:56.658Z,2.53
2022-10-09T03:34:13.087Z,2.55
2022-10-09T03:36:40.135Z,2.10
2022-10-09T03:39:07.415Z,2.47
2022-10-09T03:41:34.382Z,1.83
2022-10-09T03:44:01.402Z,2.45
2022-10-09T03:46:28.434Z,1.90
2022-10-09T03:48:55.457Z,2.05
2022-10-09T03:51:22.352Z,1.77
2022-10-09T03:53:49.247Z,1.55
2022-10-09T03:56:16.246Z,1.85
2022-10-09T03:58:43.213Z,2.55
2022-10-09T04:01:10.250Z,2.10
2022-10-09T04:03:37.199Z,2.08
2022-10-09T04:06:04.249Z,2.33
2022-10-09T04:08:31.160Z,1.67
2022-10-09T04:10:59.745Z,2.80
2022-10-09T04:13:27.412Z,2.33
2022-10-09T04:15:55.269Z,2.37
2022-10-09T04:18:22.577Z,2.17
2022-10-09T04:20:51.913Z,2.15
2022-10-09T04:23:24.372Z,2.17
2022-10-09T04:25:56.227Z,2.25
2022-10-09T04:28:23.749Z,2.22
2022-10-09T04:30:50.945Z,2.28
2022-10-09T04:33:17.888Z,2.92
2022-10-09T04:35:46.503Z,1.62
2022-10-09T04:38:13.443Z,2.10
2022-10-09T04:40:41.068Z,2.53
2022-10-09T04:43:08.138Z,1.85
2022-10-09T04:45:40.151Z,2.10
2022-10-09T04:48:07.170Z,1.92
2022-10-09T04:50:34.096Z,2.30
2022-10-09T04:53:01.026Z,2.10
2022-10-09T04:55:27.920Z,1.75
2022-10-09T04:57:54.844Z,1.80
2022-10-09T05:00:21.853Z,2.15
2022-10-09T05:02:49.076Z,1.95
2022-10-09T05:05:16.190Z,1.73
2022-10-09T05:07:43.091Z,1.87
2022-10-09T05:10:10.144Z,1.85
2022-10-09T05:12:37.029Z,2.00
2022-10-09T05:15:04.925Z,1.95
2022-10-09T05:17:31.923Z,1.77
2022-10-09T05:19:58.935Z,2.25
2022-10-09T05:22:26.289Z,1.85
2022-10-09T05:24:53.216Z,2.40
2022-10-09T05:27:20.096Z,1.75
2022-10-09T05:29:47.045Z,1.70
2022-10-09T05:32:14.821Z,1.42
2022-10-09T05:34:41.753Z,2.10
2022-10-09T05:37:08.642Z,1.80
2022-10-09T05:39:39.504Z,1.92
2022-10-09T05:42:06.510Z,1.62
2022-10-09T05:44:33.410Z,1.52
2022-10-09T05:47:00.400Z,1.73
2022-10-09T05:49:27.318Z,1.95
2022-10-09T05:51:56.077Z,1.58
2022-10-09T05:54:23.219Z,1.30
2022-10-09T05:56:50.216Z,1.50
2022-10-09T05:59:19.933Z,1.60
2022-10-09T06:01:50.202Z,1.23
2022-10-09T06:04:23.289Z,1.60
2022-10-09T06:06:50.817Z,1.42
2022-10-09T06:09:20.098Z,1.08
2022-10-09T06:11:47.029Z,1.40
2022-10-09T06:14:14.265Z,1.67
2022-10-09T06:16:43.507Z,1.55
2022-10-09T06:19:15.760Z,1.20
2022-10-09T06:21:43.389Z,1.30
2022-10-09T06:24:39.719Z,2.00
2022-10-09T06:27:06.630Z,1.67
2022-10-09T06:29:33.682Z,1.30
2022-10-09T06:32:00.577Z,1.48
2022-10-09T06:34:27.538Z,1.35
2022-10-09T06:36:54.443Z,1.02
2022-10-09T06:39:22.598Z,1.35
2022-10-09T06:41:52.050Z,1.20
2022-10-09T06:44:18.991Z,2.28
2022-10-09T06:46:48.965Z,1.48
2022-10-09T06:49:16.023Z,1.85
2022-10-09T06:51:42.963Z,1.20
2022-10-09T06:54:16.368Z,2.92
2022-10-09T06:56:43.820Z,1.73
2022-10-09T06:59:11.145Z,1.83
2022-10-09T07:01:38.464Z,1.50
2022-10-09T07:04:11.748Z,1.40
2022-10-09T07:06:42.189Z,1.33
2022-10-09T07:09:11.214Z,1.27
2022-10-09T07:11:47.054Z,1.40
2022-10-09T07:14:16.038Z,1.55
2022-10-09T07:16:45.286Z,1.37
2022-10-09T07:19:13.520Z,1.30
2022-10-09T07:21:43.321Z,1.58
2022-10-09T07:24:11.488Z,1.33
2022-10-09T07:26:42.561Z,1.40
2022-10-09T07:29:11.718Z,1.20
2022-10-09T07:31:38.646Z,2.20
2022-10-09T07:34:06.443Z,1.05
2022-10-09T07:36:33.927Z,1.05
2022-10-09T07:39:01.383Z,1.30
2022-10-09T07:41:30.153Z,1.00
2022-10-09T07:43:58.229Z,1.30
2022-10-09T07:46:30.765Z,1.25
2022-10-09T07:49:00.127Z,1.40
2022-10-09T07:51:29.277Z,1.17
2022-10-09T07:53:57.411Z,1.37
2022-10-09T07:56:29.619Z,1.00
2022-10-09T07:58:59.106Z,0.85
2022-10-09T08:01:28.267Z,1.10
2022-10-09T08:03:55.767Z,0.70
2022-10-09T08:06:23.116Z,1.17
2022-10-09T08:08:55.920Z,1.30
2022-10-09T08:11:25.130Z,1.37
2022-10-09T08:13:52.876Z,1.55
2022-10-09T08:16:21.611Z,1.30
2022-10-09T08:18:48.610Z,1.40
2022-10-09T08:21:18.392Z,1.27
2022-10-09T08:23:45.805Z,1.20
2022-10-09T08:26:20.397Z,1.00
2022-10-09T08:29:08.531Z,1.10
2022-10-09T08:31:35.540Z,1.17
2022-10-09T08:34:03.680Z,1.50
2022-10-09T08:36:31.332Z,1.10
2022-10-09T08:38:58.787Z,1.30
2022-10-09T08:41:49.943Z,1.25
2022-10-09T08:44:24.673Z,1.35
2022-10-09T08:47:06.644Z,1.20
2022-10-09T08:49:55.919Z,1.40
2022-10-09T08:52:52.631Z,1.40
2022-10-09T08:55:40.056Z,1.17
2022-10-09T08:58:07.436Z,0.90
2022-10-09T09:00:45.736Z,1.30
2022-10-09T09:03:15.513Z,1.30
2022-10-09T09:06:00.566Z,1.00
2022-10-09T09:09:05.944Z,1.45
2022-10-09T09:11:58.322Z,1.23
2022-10-09T09:14:34.276Z,1.00
2022-10-09T09:17:01.163Z,0.70
2022-10-09T09:20:00.091Z,1.87
2022-10-09T09:22:27.783Z,1.10
2022-10-09T09:24:57.768Z,0.90
2022-10-09T09:27:34.337Z,1.00
2022-10-09T09:30:13.409Z,1.15
2022-10-09T09:33:01.001Z,1.23
2022-10-09T09:35:33.029Z,0.90
2022-10-09T09:38:00.299Z,1.37
2022-10-09T09:40:37.333Z,1.10
2022-10-09T09:43:17.930Z,1.70
2022-10-09T09:45:45.487Z,1.20
2022-10-09T09:48:22.885Z,1.42
2022-10-09T09:51:04.946Z,1.00
2022-10-09T09:53:45.797Z,0.70
2022-10-09T09:56:12.881Z,1.10
2022-10-09T09:58:48.399Z,1.05
2022-10-09T10:01:27.612Z,1.73
2022-10-09T10:04:00.964Z,1.50
2022-10-09T10:06:42.090Z,1.20
2022-10-09T10:09:17.815Z,0.90
2022-10-09T10:11:54.431Z,0.90
2022-10-09T10:14:21.679Z,1.42
2022-10-09T10:16:51.458Z,1.10
2022-10-09T10:19:27.812Z,0.77
2022-10-09T10:22:05.322Z,1.30
2022-10-09T10:24:45.785Z,1.62
2022-10-09T10:27:30.101Z,0.90
2022-10-09T10:30:02.167Z,1.35
2022-10-09T10:32:40.608Z,0.90
2022-10-09T10:35:15.180Z,1.05
2022-10-09T10:38:00.919Z,1.05
2022-10-09T10:40:32.716Z,1.42
2022-10-09T10:43:07.489Z,1.25
2022-10-09T10:45:53.105Z,1.20
2022-10-09T10:48:24.215Z,1.62
2022-10-09T10:51:15.675Z,1.60
2022-10-09T10:54:27.859Z,1.25
2022-10-09T10:57:28.644Z,1.40
2022-10-09T11:00:11.330Z,1.33
2022-10-09T11:02:47.471Z,1.58
2022-10-09T11:05:33.039Z,1.50
2022-10-09T11:08:11.336Z,2.37
2022-10-09T11:11:03.229Z,1.30
2022-10-09T11:13:41.675Z,1.52
2022-10-09T11:16:34.443Z,1.73
2022-10-09T11:19:07.257Z,2.20
2022-10-09T11:21:36.900Z,1.33
2022-10-09T11:24:12.851Z,1.37
2022-10-09T11:27:09.384Z,1.55
2022-10-09T11:29:42.938Z,1.65
2022-10-09T11:32:16.513Z,1.45
2022-10-09T11:34:51.202Z,1.85
2022-10-09T11:37:27.187Z,2.00
2022-10-09T11:39:55.764Z,2.97
2022-10-09T11:42:25.213Z,2.15
2022-10-09T11:45:14.044Z,1.98
2022-10-09T11:48:02.436Z,2.12
2022-10-09T11:50:49.685Z,1.58
2022-10-09T11:53:19.912Z,1.65
2022-10-09T11:55:48.342Z,1.90
2022-10-09T11:58:26.016Z,1.50
2022-10-09T12:00:57.513Z,1.55
2022-10-09T12:03:36.410Z,1.65
2022-10-09T12:06:13.975Z,1.90
2022-10-09T12:09:02.781Z,2.05
2022-10-09T12:11:30.949Z,2.47
2022-10-09T12:14:06.649Z,1.95
2022-10-09T12:16:46.163Z,1.90
2022-10-09T12:19:38.161Z,2.05
2022-10-09T12:22:14.101Z,1.90
2022-10-09T12:24:48.323Z,2.35
2022-10-09T12:27:21.385Z,1.80
2022-10-09T12:29:56.335Z,2.00
2022-10-09T12:32:50.811Z,1.85
2022-10-09T12:35:33.162Z,2.10
2022-10-09T12:38:00.269Z,2.40
2022-10-09T12:40:31.054Z,2.30
2022-10-09T12:43:00.678Z,1.87
2022-10-09T12:45:30.689Z,2.12
2022-10-09T12:47:59.569Z,2.25
2022-10-09T12:50:28.294Z,2.72
2022-10-09T12:52:58.836Z,2.72
2022-10-09T12:55:30.144Z,1.87
2022-10-09T12:58:04.277Z,2.30
2022-10-09T13:00:33.510Z,1.85
2022-10-09T13:03:01.482Z,2.00
2022-10-09T13:05:42.304Z,2.42
2022-10-09T13:08:32.642Z,2.40
2022-10-09T13:11:11.678Z,2.12
2022-10-09T13:13:39.395Z,2.20
2022-10-09T13:16:09.480Z,2.05
2022-10-09T13:18:39.582Z,2.25
2022-10-09T13:21:24.789Z,1.95
2022-10-09T13:23:51.776Z,2.45
2022-10-09T13:26:27.162Z,2.08
2022-10-09T13:28:55.978Z,1.90
2022-10-09T13:31:22.865Z,2.08
2022-10-09T13:33:50.644Z,2.17
2022-10-09T13:36:19.251Z,2.20
2022-10-09T13:38:47.275Z,2.05
2022-10-09T13:41:24.429Z,2.50
2022-10-09T13:43:53.200Z,2.85
2022-10-09T13:46:20.410Z,2.10
2022-10-09T13:48:47.475Z,2.00
2022-10-09T13:51:14.683Z,2.42
2022-10-09T13:53:41.647Z,3.95
2022-10-09T13:56:09.598Z,2.62
2022-10-09T13:58:37.929Z,2.55
2022-10-09T14:01:04.949Z,2.62
2022-10-09T14:03:31.904Z,2.50
2022-10-09T14:06:00.101Z,3.03
2022-10-09T14:08:27.784Z,3.35
2022-10-09T14:10:54.894Z,4.18
2022-10-09T14:13:21.921Z,3.53
2022-10-09T14:15:49.439Z,3.90
2022-10-09T14:18:16.617Z,3.47
2022-10-09T14:20:43.504Z,3.47
2022-10-09T14:23:10.617Z,3.30
2022-10-09T14:25:37.554Z,3.10
2022-10-09T14:28:04.658Z,3.22
2022-10-09T14:30:32.124Z,3.30
2022-10-09T14:32:59.470Z,3.00
2022-10-09T14:35:26.456Z,2.80
2022-10-09T14:37:53.431Z,3.40
2022-10-09T14:40:20.336Z,2.83
2022-10-09T14:42:47.563Z,3.22
2022-10-09T14:45:14.959Z,2.72
2022-10-09T14:47:41.921Z,2.33
2022-10-09T14:50:09.384Z,3.37
2022-10-09T14:52:36.414Z,3.58
2022-10-09T14:55:03.383Z,1.95
2022-10-09T14:57:35.049Z,2.10
2022-10-09T15:00:03.902Z,2.28
2022-10-09T15:02:31.044Z,2.10
2022-10-09T15:04:58.070Z,2.17
2022-10-09T15:07:28.050Z,2.08
2022-10-09T15:09:56.961Z,1.58
2022-10-09T15:12:24.037Z,1.80
2022-10-09T15:14:51.043Z,1.85
2022-10-09T15:17:17.969Z,1.85
2022-10-09T15:19:44.880Z,2.10
2022-10-09T15:22:11.893Z,1.70
2022-10-09T15:24:38.937Z,1.92
2022-10-09T15:27:06.082Z,1.80
2022-10-09T15:29:33.013Z,2.50
2022-10-09T15:32:02.268Z,2.33
2022-10-09T15:34:29.693Z,2.12
2022-10-09T15:36:56.790Z,2.15
2022-10-09T15:39:23.893Z,1.83
2022-10-09T15:41:50.829Z,1.35
2022-10-09T15:44:20.562Z,1.42
2022-10-09T15:46:48.726Z,1.48
2022-10-09T15:49:16.158Z,1.52
2022-10-09T15:51:43.105Z,1.45
2022-10-09T15:54:12.038Z,1.45
2022-10-09T15:56:40.319Z,1.65
2022-10-09T15:59:10.496Z,1.70
2022-10-09T16:01:37.482Z,1.42
2022-10-09T16:04:04.539Z,1.70
2022-10-09T16:06:31.489Z,2.55
2022-10-09T16:08:59.160Z,1.55
2022-10-09T16:11:26.971Z,1.33
2022-10-09T16:13:54.744Z,1.55
2022-10-09T16:16:24.396Z,1.50
2022-10-09T16:18:52.118Z,2.10
2022-10-09T16:21:29.107Z,1.48
2022-10-09T16:23:59.247Z,1.20
2022-10-09T16:26:28.726Z,2.20
2022-10-09T16:28:56.033Z,1.52
2022-10-09T16:31:26.210Z,1.70
2022-10-09T16:33:53.464Z,1.60
2022-10-09T16:36:20.443Z,2.05
2022-10-09T16:38:47.669Z,1.33
2022-10-09T16:41:20.690Z,1.52
2022-10-09T16:43:50.155Z,1.52
2022-10-09T16:46:29.507Z,1.45
2022-10-09T16:48:57.553Z,1.30
2022-10-09T16:51:30.570Z,1.60
2022-10-09T16:53:59.558Z,1.37
2022-10-09T16:56:30.277Z,1.60
2022-10-09T16:58:59.313Z,1.90
2022-10-09T17:01:27.100Z,1.20
2022-10-09T17:03:58.502Z,1.15
2022-10-09T17:06:27.057Z,1.45
2022-10-09T17:08:57.022Z,1.00
2022-10-09T17:11:25.758Z,1.05
2022-10-09T17:13:56.764Z,1.20
2022-10-09T17:16:26.687Z,1.37
2022-10-09T17:18:54.465Z,1.30
2022-10-09T17:21:21.535Z,1.10
2022-10-09T17:23:48.590Z,1.00
2022-10-09T17:26:19.083Z,1.00
2022-10-09T17:28:47.528Z,1.20
2022-10-09T17:31:20.856Z,1.27
2022-10-09T17:33:49.015Z,1.55
2022-10-09T17:36:18.494Z,1.40
2022-10-09T17:38:46.011Z,1.98
2022-10-09T17:41:14.938Z,1.17
2022-10-09T17:43:42.087Z,1.27
2022-10-09T17:46:09.225Z,1.25
2022-10-09T17:48:39.383Z,1.48
2022-10-09T17:51:06.313Z,1.77
2022-10-09T17:53:33.231Z,1.40
2022-10-09T17:56:04.250Z,1.30
2022-10-09T17:58:31.387Z,1.55
2022-10-09T18:00:58.402Z,1.37
2022-10-09T18:03:25.340Z,1.50
2022-10-09T18:05:53.154Z,1.50
2022-10-09T18:08:20.233Z,1.27
2022-10-09T18:10:47.142Z,1.80
2022-10-09T18:13:14.271Z,1.10
2022-10-09T18:15:44.033Z,1.10
2022-10-09T18:18:11.822Z,1.30
2022-10-09T18:20:40.405Z,1.30
2022-10-09T18:23:08.038Z,1.20
2022-10-09T18:25:40.179Z,1.40
2022-10-09T18:28:07.216Z,1.55
2022-10-09T18:30:34.577Z,1.00
2022-10-09T18:33:01.512Z,1.75
2022-10-09T18:35:30.402Z,1.00
2022-10-09T18:37:57.450Z,1.10
2022-10-09T18:40:24.429Z,1.42
2022-10-09T18:42:52.654Z,1.40
2022-10-09T18:45:20.010Z,1.00
2022-10-09T18:47:47.171Z,0.90
2022-10-09T18:50:15.047Z,1.17
2022-10-09T18:52:43.437Z,1.20
2022-10-09T18:55:15.042Z,1.08
2022-10-09T18:57:42.623Z,0.90
2022-10-09T19:00:10.216Z,1.20
2022-10-09T19:02:37.412Z,1.30
2022-10-09T19:05:04.636Z,1.35
2022-10-09T19:07:31.655Z,1.05
2022-10-09T19:09:58.702Z,0.50
2022-10-09T19:12:26.286Z,0.30
2022-10-09T19:14:53.620Z,0.65
2022-10-09T19:17:20.547Z,0.30
2022-10-09T19:19:47.509Z,0.20
2022-10-09T19:22:17.391Z,0.25
2022-10-09T19:24:46.114Z,0.28
2022-10-09T19:27:13.203Z,0.20
2022-10-09T19:29:40.166Z,0.20
2022-10-09T19:32:07.094Z,0.10
2022-10-09T19:34:34.046Z,0.10
2022-10-09T19:37:01.221Z,0.17
2022-10-09T19:39:28.198Z,0.10
2022-10-09T19:41:55.119Z,0.20
2022-10-09T19:44:22.074Z,0.20
2022-10-09T19:46:49.179Z,0.10
2022-10-09T19:49:16.625Z,0.17
2022-10-09T19:51:43.711Z,0.20
2022-10-09T19:54:10.965Z,0.10
2022-10-09T19:56:39.613Z,0.20
2022-10-09T19:59:08.407Z,0.70
2022-10-09T20:01:37.584Z,0.40
2022-10-09T20:04:08.780Z,0.90
2022-10-09T20:06:40.327Z,1.52
2022-10-09T20:09:08.095Z,1.20
2022-10-09T20:11:35.875Z,0.95
2022-10-09T20:14:03.616Z,1.83
2022-10-09T20:16:32.254Z,1.10
2022-10-09T20:19:00.254Z,2.08
2022-10-09T20:21:29.277Z,0.82
2022-10-09T20:23:57.270Z,1.15
2022-10-09T20:26:24.665Z,1.00
2022-10-09T20:28:55.294Z,1.45
2022-10-09T20:31:24.643Z,1.20
2022-10-09T20:33:52.361Z,1.40
2022-10-09T20:36:31.185Z,1.48
2022-10-09T20:39:00.262Z,1.98
2022-10-09T20:41:29.053Z,1.98
2022-10-09T20:43:57.539Z,1.77
2022-10-09T20:46:26.024Z,1.58
2022-10-09T20:48:52.999Z,2.12
2022-10-09T20:51:21.055Z,1.00
2022-10-09T20:53:52.790Z,1.40
2022-10-09T20:56:19.689Z,0.98
2022-10-09T20:58:46.610Z,1.30
2022-10-09T21:01:16.149Z,0.98
2022-10-09T21:03:43.968Z,1.20
2022-10-09T21:06:13.986Z,1.27
2022-10-09T21:08:41.126Z,1.48
2022-10-09T21:11:16.543Z,1.50
2022-10-09T21:13:44.094Z,1.23
2022-10-09T21:16:13.809Z,1.12
2022-10-09T21:18:40.942Z,1.70
2022-10-09T21:21:13.831Z,1.15
2022-10-09T21:23:41.502Z,1.20
2022-10-09T21:26:16.808Z,1.00
2022-10-09T21:28:44.780Z,1.67
2022-10-09T21:31:15.813Z,1.30
2022-10-09T21:33:43.079Z,1.50
2022-10-09T21:36:47.116Z,1.42
2022-10-09T21:39:25.673Z,1.08
2022-10-09T21:41:52.744Z,1.20
2022-10-09T21:44:19.621Z,0.95
2022-10-09T21:46:46.621Z,1.25
2022-10-09T21:49:21.196Z,1.55
2022-10-09T21:51:48.595Z,1.83
2022-10-09T21:54:15.886Z,1.50
2022-10-09T21:56:42.924Z,1.45
2022-10-09T21:59:09.792Z,1.10
2022-10-09T22:01:36.805Z,1.40
2022-10-09T22:04:03.870Z,2.00
2022-10-09T22:06:30.791Z,1.33
2022-10-09T22:08:59.427Z,1.23
2022-10-09T22:11:26.379Z,0.95
2022-10-09T22:13:55.056Z,0.70
2022-10-09T22:16:22.029Z,1.50
2022-10-09T22:18:49.093Z,1.20
2022-10-09T22:21:16.889Z,1.10
2022-10-09T22:23:43.847Z,0.98
2022-10-09T22:26:17.144Z,1.60
2022-10-09T22:28:45.456Z,1.50
2022-10-09T22:31:20.287Z,1.37
2022-10-09T22:33:52.008Z,1.00
2022-10-09T22:36:20.903Z,1.08
2022-10-09T22:38:48.377Z,1.00
2022-10-09T22:41:17.793Z,0.95
2022-10-09T22:43:47.331Z,1.20
2022-10-09T22:46:20.231Z,0.80
2022-10-09T22:48:47.679Z,1.20
2022-10-09T22:51:16.612Z,1.12
2022-10-09T22:53:44.364Z,1.52
2022-10-09T22:56:20.630Z,1.17
2022-10-09T22:58:48.327Z,0.73
2022-10-09T23:01:32.053Z,0.77
2022-10-09T23:04:03.519Z,1.33
2022-10-09T23:06:30.851Z,1.48
2022-10-09T23:08:58.241Z,1.73
2022-10-09T23:11:25.329Z,1.33
2022-10-09T23:13:57.009Z,1.30
2022-10-09T23:16:25.001Z,1.50
2022-10-09T23:18:52.258Z,1.45
2022-10-09T23:21:21.980Z,1.10
2022-10-09T23:23:50.087Z,1.23
2022-10-09T23:26:21.828Z,1.62
2022-10-09T23:28:54.499Z,1.37
2022-10-09T23:31:22.237Z,1.48
2022-10-09T23:33:49.525Z,1.80
2022-10-09T23:36:19.407Z,1.40
2022-10-09T23:38:46.564Z,1.55
2022-10-09T23:41:16.538Z,1.35
2022-10-09T23:43:44.351Z,1.58
2022-10-09T23:46:14.713Z,1.70
2022-10-09T23:48:42.640Z,1.25
2022-10-09T23:51:10.557Z,1.80
2022-10-09T23:53:37.612Z,1.35
2022-10-09T23:56:18.316Z,1.52
2022-10-09T23:58:45.874Z,1.87
